createdAt,value
2017-06-14T06:55:00.061Z,20.80
2017-06-14T06:59:02.858Z,20.82
2017-06-14T07:12:43.235Z,20.98
2017-06-14T07:15:27.051Z,21.06
2017-06-14T07:19:06.358Z,21.02
2017-06-14T07:28:50.696Z,21.24
2017-06-14T07:31:34.803Z,21.35
2017-06-14T07:34:28.875Z,21.35
2017-06-14T07:37:23.669Z,21.30
2017-06-14T07:40:18.707Z,21.20
2017-06-14T07:43:13.761Z,21.08
2017-06-14T07:46:08.854Z,20.96
2017-06-14T07:49:03.774Z,20.86
2017-06-14T07:51:58.914Z,20.78
2017-06-14T07:54:54.100Z,20.72
2017-06-14T08:00:44.516Z,20.63
2017-06-14T08:03:39.696Z,20.62
2017-06-14T08:06:34.888Z,20.63
2017-06-14T08:09:30.117Z,20.64
2017-06-14T08:15:46.334Z,20.69
2017-06-14T08:21:36.513Z,20.61
2017-06-14T08:24:31.667Z,20.52
2017-06-14T08:27:26.888Z,20.44
2017-06-14T08:30:21.971Z,20.37
2017-06-14T08:36:12.448Z,20.50
2017-06-14T08:39:07.661Z,20.62
2017-06-14T08:42:03.184Z,20.85
2017-06-14T08:44:58.818Z,21.19
2017-06-14T08:47:54.159Z,21.45
2017-06-14T08:50:49.855Z,21.68
2017-06-14T08:53:45.309Z,21.94
2017-06-14T08:56:40.601Z,22.08
2017-06-14T08:59:35.817Z,22.16
2017-06-14T09:08:21.593Z,22.07
2017-06-14T09:11:16.959Z,22.03
2017-06-14T09:14:12.151Z,21.95
2017-06-14T09:17:07.382Z,21.83
2017-06-14T09:20:02.699Z,21.81
2017-06-14T09:22:58.181Z,21.89
2017-06-14T09:25:53.985Z,22.01
2017-06-14T09:28:49.633Z,22.26
2017-06-14T09:34:41.254Z,23.15
2017-06-14T09:37:37.169Z,23.65
2017-06-14T09:43:29.210Z,24.61
2017-06-14T09:46:25.081Z,24.89
2017-06-14T09:49:20.749Z,25.15
2017-06-14T09:52:16.597Z,25.50
2017-06-14T09:55:12.446Z,25.84
2017-06-14T09:58:08.629Z,26.29
2017-06-14T10:01:04.764Z,26.78
2017-06-14T10:04:01.029Z,27.28
2017-06-14T10:06:57.027Z,27.62
2017-06-14T10:09:53.117Z,27.97
2017-06-14T10:12:49.330Z,28.42
2017-06-14T10:15:45.404Z,28.88
2017-06-14T10:18:41.583Z,29.32
2017-06-14T10:21:37.732Z,29.58
2017-06-14T10:24:33.717Z,29.86
2017-06-14T10:27:29.697Z,30.09
2017-06-14T10:30:25.539Z,30.14
2017-06-14T10:33:21.050Z,30.00
2017-06-14T10:36:16.466Z,29.68
2017-06-14T10:39:11.891Z,29.20
2017-06-14T10:42:07.260Z,28.83
2017-06-14T10:45:02.749Z,28.42
2017-06-14T10:47:58.097Z,28.07
2017-06-14T10:50:53.661Z,27.77
2017-06-14T10:53:49.142Z,27.47
2017-06-14T10:56:44.546Z,27.18
2017-06-14T10:59:39.848Z,26.89
2017-06-14T11:02:35.318Z,26.65
2017-06-14T11:05:30.806Z,26.43
2017-06-14T11:08:26.302Z,26.23
2017-06-14T11:11:21.670Z,26.03
2017-06-14T11:14:17.062Z,25.86
2017-06-14T11:17:12.363Z,25.68
2017-06-14T11:20:07.725Z,25.51
2017-06-14T11:23:02.994Z,25.38
2017-06-14T11:25:58.423Z,25.23
2017-06-14T11:28:53.595Z,25.03
2017-06-14T11:34:44.111Z,24.65
2017-06-14T11:37:39.297Z,24.48
2017-06-14T11:40:34.426Z,24.33
2017-06-14T11:43:29.727Z,24.20
2017-06-14T11:46:24.862Z,24.06
2017-06-14T11:49:20.085Z,23.95
2017-06-14T11:55:10.605Z,23.74
2017-06-14T12:01:00.980Z,23.59
2017-06-14T12:03:56.207Z,23.54
2017-06-14T12:06:51.447Z,23.51
2017-06-14T12:09:46.734Z,23.48
2017-06-14T12:15:37.283Z,23.36
2017-06-14T12:18:32.602Z,23.29
2017-06-14T12:21:27.884Z,23.22
2017-06-14T12:24:23.220Z,23.18
2017-06-14T12:27:18.407Z,23.15
2017-06-14T12:30:13.746Z,23.13
2017-06-14T12:33:09.058Z,23.14
2017-06-14T12:36:04.409Z,23.13
2017-06-14T12:38:59.748Z,23.10
2017-06-14T12:41:55.122Z,23.07
2017-06-14T12:44:50.373Z,23.03
2017-06-14T12:47:45.679Z,23.02
2017-06-14T12:50:40.856Z,23.01
2017-06-14T12:53:36.120Z,22.99
2017-06-14T12:59:26.422Z,22.93
2017-06-14T13:05:16.940Z,22.90
2017-06-14T13:08:12.031Z,22.87
2017-06-14T13:11:07.561Z,22.84
2017-06-14T13:14:02.830Z,22.81
2017-06-14T13:16:58.196Z,22.79
2017-06-14T13:19:53.431Z,22.77
2017-06-14T13:22:48.714Z,22.77
2017-06-14T13:25:43.859Z,22.75
2017-06-14T13:28:39.087Z,22.74
2017-06-14T13:31:34.312Z,22.73
2017-06-14T13:34:29.735Z,22.72
2017-06-14T13:37:24.921Z,22.71
2017-06-14T13:40:20.126Z,22.71
2017-06-14T13:43:15.361Z,22.71
2017-06-14T13:46:10.580Z,22.72
2017-06-14T13:49:05.745Z,22.71
2017-06-14T13:52:01.056Z,22.70
2017-06-14T13:54:56.317Z,22.69
2017-06-14T13:57:51.532Z,22.69
2017-06-14T14:00:46.726Z,22.68
2017-06-14T14:03:41.908Z,22.67
2017-06-14T14:09:32.240Z,22.64
2017-06-14T14:12:27.438Z,22.63
2017-06-14T14:15:22.556Z,22.64
2017-06-14T14:18:17.905Z,22.64
2017-06-14T14:24:08.423Z,22.65
2017-06-14T14:27:03.742Z,22.66
2017-06-14T14:29:58.970Z,22.67
2017-06-14T14:32:54.074Z,22.67
2017-06-14T14:35:49.393Z,22.68
2017-06-14T14:38:44.544Z,22.69
2017-06-14T14:41:39.860Z,22.70
2017-06-14T14:44:35.060Z,22.72
2017-06-14T14:47:30.267Z,22.73
2017-06-14T14:50:25.449Z,22.74
2017-06-14T14:53:20.708Z,22.76
2017-06-14T14:56:15.916Z,22.77
2017-06-14T14:59:11.083Z,22.78
2017-06-14T15:02:06.509Z,22.78
2017-06-14T15:05:01.751Z,22.79
2017-06-14T15:07:56.860Z,22.79
2017-06-14T15:10:51.941Z,22.79
2017-06-14T15:13:47.189Z,22.80
2017-06-14T15:16:42.386Z,22.80
2017-06-14T15:19:37.619Z,22.82
2017-06-14T15:25:28.025Z,22.84
2017-06-14T15:28:23.203Z,22.84
2017-06-14T15:34:13.711Z,22.88
2017-06-14T15:37:08.943Z,22.90
2017-06-14T15:40:04.061Z,22.91
2017-06-14T15:42:59.229Z,22.92
2017-06-14T15:45:54.419Z,22.93
2017-06-14T15:48:49.659Z,22.93
2017-06-14T15:51:44.880Z,22.93
2017-06-14T15:54:40.068Z,22.93
2017-06-14T15:57:35.295Z,22.93
2017-06-14T16:00:30.470Z,22.93
2017-06-14T16:03:25.579Z,22.93
2017-06-14T16:06:20.879Z,22.91
2017-06-14T16:09:16.174Z,22.89
2017-06-14T16:12:11.308Z,22.87
2017-06-14T16:15:06.477Z,22.86
2017-06-14T16:18:01.698Z,22.84
2017-06-14T16:20:56.938Z,22.82
2017-06-14T16:23:51.964Z,22.80
2017-06-14T16:26:47.164Z,22.78
2017-06-14T16:29:42.315Z,22.75
2017-06-14T16:32:37.453Z,22.73
2017-06-14T16:35:32.584Z,22.70
2017-06-14T16:38:27.823Z,22.67
2017-06-14T16:41:22.960Z,22.64
2017-06-14T16:44:18.231Z,22.61
2017-06-14T16:47:13.432Z,22.59
2017-06-14T16:50:08.542Z,22.56
2017-06-14T16:53:03.682Z,22.55
2017-06-14T16:55:58.763Z,22.54
2017-06-14T16:58:53.827Z,22.52
2017-06-14T17:01:49.077Z,22.51
2017-06-14T17:04:44.251Z,22.50
2017-06-14T17:07:39.369Z,22.49
2017-06-14T17:10:34.598Z,22.47
2017-06-14T17:13:29.712Z,22.47
2017-06-14T17:16:24.859Z,22.46
2017-06-14T17:19:20.034Z,22.46
2017-06-14T17:22:15.155Z,22.46
2017-06-14T17:28:05.420Z,22.44
2017-06-14T17:31:00.478Z,22.43
2017-06-14T17:33:55.730Z,22.42
2017-06-14T17:36:50.919Z,22.40
2017-06-14T17:39:45.985Z,22.38
2017-06-14T17:42:41.018Z,22.37
2017-06-14T17:45:36.068Z,22.34
2017-06-14T17:48:31.196Z,22.32
2017-06-14T17:51:26.385Z,22.30
2017-06-14T17:54:21.437Z,22.28
2017-06-14T17:57:16.516Z,22.27
2017-06-14T18:00:11.661Z,22.25
2017-06-14T18:03:06.783Z,22.24
2017-06-14T18:06:01.841Z,22.23
2017-06-14T18:08:56.994Z,22.22
2017-06-14T18:11:52.065Z,22.22
2017-06-14T18:14:47.202Z,22.21
2017-06-14T18:20:37.422Z,22.19
2017-06-14T18:23:32.652Z,22.17
2017-06-14T18:26:27.747Z,22.16
2017-06-14T18:29:22.858Z,22.15
2017-06-14T18:32:17.871Z,22.14
2017-06-14T18:35:13.016Z,22.13
2017-06-14T18:38:08.108Z,22.12
2017-06-14T18:41:03.204Z,22.11
2017-06-14T18:43:58.182Z,22.09
2017-06-14T18:46:53.232Z,22.08
2017-06-14T18:49:48.278Z,22.06
2017-06-14T18:52:43.309Z,22.04
2017-06-14T18:55:38.423Z,22.02
2017-06-14T18:58:33.350Z,21.99
2017-06-14T19:04:23.560Z,21.94
2017-06-14T19:10:13.550Z,21.87
2017-06-14T19:13:08.562Z,21.84
2017-06-14T19:16:03.643Z,21.80
2017-06-14T19:18:58.652Z,21.77
2017-06-14T19:21:53.762Z,21.73
2017-06-14T19:24:48.742Z,21.69
2017-06-14T19:27:43.776Z,21.64
2017-06-14T19:30:38.781Z,21.59
2017-06-14T19:33:33.788Z,21.54
2017-06-14T19:36:28.830Z,21.50
2017-06-14T19:42:18.847Z,21.42
2017-06-14T19:45:13.930Z,21.39
2017-06-14T19:48:08.823Z,21.35
2017-06-14T19:51:03.849Z,21.32
2017-06-14T19:56:53.880Z,21.23
2017-06-14T20:02:43.857Z,21.12
2017-06-14T20:05:38.866Z,21.05
2017-06-14T20:08:33.756Z,20.97
2017-06-14T20:11:28.668Z,20.89
2017-06-14T20:14:23.595Z,20.81
2017-06-14T20:17:18.510Z,20.72
2017-06-14T20:20:13.599Z,20.64
2017-06-14T20:23:08.584Z,20.57
2017-06-14T20:26:03.408Z,20.51
2017-06-14T20:28:58.212Z,20.44
2017-06-14T20:31:53.026Z,20.37
2017-06-14T20:34:47.824Z,20.31
2017-06-14T20:37:42.699Z,20.24
2017-06-14T20:40:37.544Z,20.19
2017-06-14T20:43:32.475Z,20.15
2017-06-14T20:48:54.248Z,20.11
2017-06-14T20:51:38.835Z,20.19
2017-06-14T20:54:33.294Z,20.19
2017-06-14T20:57:39.452Z,20.15
2017-06-14T21:03:52.978Z,20.11
2017-06-14T21:07:44.993Z,20.20
2017-06-14T21:10:29.993Z,20.21
2017-06-14T21:13:24.424Z,20.15
2017-06-14T21:16:19.108Z,20.05
2017-06-14T21:20:33.103Z,19.91
2017-06-14T21:34:02.409Z,20.13
2017-06-14T21:36:46.083Z,20.16
2017-06-14T21:50:35.458Z,20.10
2017-06-14T22:06:30.094Z,20.10
2017-06-14T22:57:37.672Z,19.71
